sensor_id;sensor_type;location;lat;lon;timestamp;temperature;humidity
4223;DHT22;2125;51.436;14.138;2022-10-31T00:01:31;9.00;85.60
4223;DHT22;2125;51.436;14.138;2022-10-31T00:03:58;9.10;85.40
4223;DHT22;2125;51.436;14.138;2022-10-31T00:06:25;9.10;85.50
4223;DHT22;2125;51.436;14.138;2022-10-31T00:08:53;9.10;85.60
4223;DHT22;2125;51.436;14.138;2022-10-31T00:11:22;9.00;85.80
4223;DHT22;2125;51.436;14.138;2022-10-31T00:13:49;8.90;85.90
4223;DHT22;2125;51.436;14.138;2022-10-31T00:16:16;8.80;85.90
4223;DHT22;2125;51.436;14.138;2022-10-31T00:18:53;8.90;85.90
4223;DHT22;2125;51.436;14.138;2022-10-31T00:21:20;8.80;85.80
4223;DHT22;2125;51.436;14.138;2022-10-31T00:23:47;8.80;85.80
4223;DHT22;2125;51.436;14.138;2022-10-31T00:26:14;8.80;85.70
4223;DHT22;2125;51.436;14.138;2022-10-31T00:28:42;8.90;85.50
4223;DHT22;2125;51.436;14.138;2022-10-31T00:31:10;9.00;85.30
4223;DHT22;2125;51.436;14.138;2022-10-31T00:33:38;9.10;85.10
4223;DHT22;2125;51.436;14.138;2022-10-31T00:36:07;9.20;84.90
4223;DHT22;2125;51.436;14.138;2022-10-31T00:38:34;9.30;84.70
4223;DHT22;2125;51.436;14.138;2022-10-31T00:41:00;9.30;84.70
4223;DHT22;2125;51.436;14.138;2022-10-31T00:43:27;9.30;84.60
4223;DHT22;2125;51.436;14.138;2022-10-31T00:45:55;9.40;84.50
4223;DHT22;2125;51.436;14.138;2022-10-31T00:48:21;9.40;84.40
4223;DHT22;2125;51.436;14.138;2022-10-31T00:50:48;9.50;84.40
4223;DHT22;2125;51.436;14.138;2022-10-31T00:53:15;9.40;84.40
4223;DHT22;2125;51.436;14.138;2022-10-31T00:55:41;9.40;84.40
4223;DHT22;2125;51.436;14.138;2022-10-31T00:58:08;9.50;84.30
4223;DHT22;2125;51.436;14.138;2022-10-31T01:00:41;9.60;84.10
4223;DHT22;2125;51.436;14.138;2022-10-31T01:03:09;9.60;84.20
4223;DHT22;2125;51.436;14.138;2022-10-31T01:05:35;9.60;84.20
4223;DHT22;2125;51.436;14.138;2022-10-31T01:08:02;9.60;84.10
4223;DHT22;2125;51.436;14.138;2022-10-31T01:10:29;9.80;84.10
4223;DHT22;2125;51.436;14.138;2022-10-31T01:12:55;9.80;84.10
4223;DHT22;2125;51.436;14.138;2022-10-31T01:15:22;9.80;84.10
4223;DHT22;2125;51.436;14.138;2022-10-31T01:17:49;9.80;84.10
4223;DHT22;2125;51.436;14.138;2022-10-31T01:20:18;9.80;84.10
4223;DHT22;2125;51.436;14.138;2022-10-31T01:22:45;9.80;84.10
4223;DHT22;2125;51.436;14.138;2022-10-31T01:25:11;9.80;84.10
4223;DHT22;2125;51.436;14.138;2022-10-31T01:27:38;9.70;84.20
4223;DHT22;2125;51.436;14.138;2022-10-31T01:30:06;9.70;84.40
4223;DHT22;2125;51.436;14.138;2022-10-31T01:32:33;9.60;84.60
4223;DHT22;2125;51.436;14.138;2022-10-31T01:35:00;9.50;85.00
4223;DHT22;2125;51.436;14.138;2022-10-31T01:37:27;9.30;85.10
4223;DHT22;2125;51.436;14.138;2022-10-31T01:39:54;9.30;85.20
4223;DHT22;2125;51.436;14.138;2022-10-31T01:42:22;9.20;85.10
4223;DHT22;2125;51.436;14.138;2022-10-31T01:44:58;9.30;85.10
4223;DHT22;2125;51.436;14.138;2022-10-31T01:47:35;9.40;84.90
4223;DHT22;2125;51.436;14.138;2022-10-31T01:50:04;9.50;84.80
4223;DHT22;2125;51.436;14.138;2022-10-31T01:52:37;9.50;84.80
4223;DHT22;2125;51.436;14.138;2022-10-31T01:55:07;9.40;84.70
4223;DHT22;2125;51.436;14.138;2022-10-31T01:57:37;9.40;85.10
4223;DHT22;2125;51.436;14.138;2022-10-31T02:00:09;9.20;85.50
4223;DHT22;2125;51.436;14.138;2022-10-31T02:02:36;9.10;85.80
4223;DHT22;2125;51.436;14.138;2022-10-31T02:05:06;9.00;85.80
4223;DHT22;2125;51.436;14.138;2022-10-31T02:07:39;9.00;85.80
4223;DHT22;2125;51.436;14.138;2022-10-31T02:10:07;8.90;85.80
4223;DHT22;2125;51.436;14.138;2022-10-31T02:12:35;8.90;85.70
4223;DHT22;2125;51.436;14.138;2022-10-31T02:15:03;8.80;85.70
4223;DHT22;2125;51.436;14.138;2022-10-31T02:17:31;8.90;85.60
4223;DHT22;2125;51.436;14.138;2022-10-31T02:20:09;8.90;85.50
4223;DHT22;2125;51.436;14.138;2022-10-31T02:25:45;9.00;85.20
4223;DHT22;2125;51.436;14.138;2022-10-31T02:28:29;9.10;85.00
4223;DHT22;2125;51.436;14.138;2022-10-31T02:31:12;9.10;84.80
4223;DHT22;2125;51.436;14.138;2022-10-31T02:33:44;9.20;84.70
4223;DHT22;2125;51.436;14.138;2022-10-31T02:36:21;9.20;84.60
4223;DHT22;2125;51.436;14.138;2022-10-31T02:38:54;9.30;84.60
4223;DHT22;2125;51.436;14.138;2022-10-31T02:41:31;9.40;84.70
4223;DHT22;2125;51.436;14.138;2022-10-31T02:44:07;9.50;84.70
4223;DHT22;2125;51.436;14.138;2022-10-31T02:46:47;9.50;84.70
4223;DHT22;2125;51.436;14.138;2022-10-31T02:49:22;9.50;84.60
4223;DHT22;2125;51.436;14.138;2022-10-31T02:51:50;9.60;84.50
4223;DHT22;2125;51.436;14.138;2022-10-31T02:54:25;9.70;84.40
4223;DHT22;2125;51.436;14.138;2022-10-31T02:56:59;9.70;84.40
4223;DHT22;2125;51.436;14.138;2022-10-31T02:59:29;9.80;84.40
4223;DHT22;2125;51.436;14.138;2022-10-31T03:02:18;9.80;84.50
4223;DHT22;2125;51.436;14.138;2022-10-31T03:05:06;9.80;84.30
4223;DHT22;2125;51.436;14.138;2022-10-31T03:07:42;9.90;84.40
4223;DHT22;2125;51.436;14.138;2022-10-31T03:10:22;9.90;84.40
4223;DHT22;2125;51.436;14.138;2022-10-31T03:12:59;9.90;84.50
4223;DHT22;2125;51.436;14.138;2022-10-31T03:15:30;9.90;84.50
4223;DHT22;2125;51.436;14.138;2022-10-31T03:18:02;9.90;84.50
4223;DHT22;2125;51.436;14.138;2022-10-31T03:20:41;9.80;84.60
4223;DHT22;2125;51.436;14.138;2022-10-31T03:23:12;9.70;84.70
4223;DHT22;2125;51.436;14.138;2022-10-31T03:25:41;9.60;84.60
4223;DHT22;2125;51.436;14.138;2022-10-31T03:28:09;9.70;84.50
4223;DHT22;2125;51.436;14.138;2022-10-31T03:30:41;9.70;84.40
4223;DHT22;2125;51.436;14.138;2022-10-31T03:33:13;9.70;84.30
4223;DHT22;2125;51.436;14.138;2022-10-31T03:35:42;9.70;84.30
4223;DHT22;2125;51.436;14.138;2022-10-31T03:38:13;9.70;84.20
4223;DHT22;2125;51.436;14.138;2022-10-31T03:40:42;9.70;84.20
4223;DHT22;2125;51.436;14.138;2022-10-31T03:43:13;9.70;84.20
4223;DHT22;2125;51.436;14.138;2022-10-31T03:45:45;9.70;84.20
4223;DHT22;2125;51.436;14.138;2022-10-31T03:48:15;9.60;84.20
4223;DHT22;2125;51.436;14.138;2022-10-31T03:50:49;9.60;84.20
4223;DHT22;2125;51.436;14.138;2022-10-31T03:53:22;9.60;84.10
4223;DHT22;2125;51.436;14.138;2022-10-31T03:55:55;9.60;84.00
4223;DHT22;2125;51.436;14.138;2022-10-31T03:58:28;9.60;84.20
4223;DHT22;2125;51.436;14.138;2022-10-31T04:00:58;9.60;84.10
4223;DHT22;2125;51.436;14.138;2022-10-31T04:03:36;9.60;84.20
4223;DHT22;2125;51.436;14.138;2022-10-31T04:06:16;9.50;84.30
4223;DHT22;2125;51.436;14.138;2022-10-31T04:08:47;9.50;84.30
4223;DHT22;2125;51.436;14.138;2022-10-31T04:11:17;9.50;84.30
4223;DHT22;2125;51.436;14.138;2022-10-31T04:13:46;9.50;84.30
4223;DHT22;2125;51.436;14.138;2022-10-31T04:16:14;9.50;84.30
4223;DHT22;2125;51.436;14.138;2022-10-31T04:18:43;9.50;84.40
4223;DHT22;2125;51.436;14.138;2022-10-31T04:21:10;9.40;84.30
4223;DHT22;2125;51.436;14.138;2022-10-31T04:23:37;9.40;84.30
4223;DHT22;2125;51.436;14.138;2022-10-31T04:26:05;9.40;84.40
4223;DHT22;2125;51.436;14.138;2022-10-31T04:28:31;9.30;84.50
4223;DHT22;2125;51.436;14.138;2022-10-31T04:30:59;9.30;84.40
4223;DHT22;2125;51.436;14.138;2022-10-31T04:33:25;9.30;84.40
4223;DHT22;2125;51.436;14.138;2022-10-31T04:35:53;9.40;84.40
4223;DHT22;2125;51.436;14.138;2022-10-31T04:38:21;9.40;84.40
4223;DHT22;2125;51.436;14.138;2022-10-31T04:40:48;9.30;84.40
4223;DHT22;2125;51.436;14.138;2022-10-31T04:43:14;9.40;84.40
4223;DHT22;2125;51.436;14.138;2022-10-31T04:45:41;9.30;84.50
4223;DHT22;2125;51.436;14.138;2022-10-31T04:48:08;9.30;84.50
4223;DHT22;2125;51.436;14.138;2022-10-31T04:50:35;9.20;84.60
4223;DHT22;2125;51.436;14.138;2022-10-31T04:53:05;9.20;84.60
4223;DHT22;2125;51.436;14.138;2022-10-31T04:55:32;9.20;84.50
4223;DHT22;2125;51.436;14.138;2022-10-31T04:57:58;9.20;84.60
4223;DHT22;2125;51.436;14.138;2022-10-31T05:00:25;9.10;84.60
4223;DHT22;2125;51.436;14.138;2022-10-31T05:02:53;9.20;84.70
4223;DHT22;2125;51.436;14.138;2022-10-31T05:05:22;9.10;84.90
4223;DHT22;2125;51.436;14.138;2022-10-31T05:07:50;9.10;84.90
4223;DHT22;2125;51.436;14.138;2022-10-31T05:10:20;9.10;85.00
4223;DHT22;2125;51.436;14.138;2022-10-31T05:12:47;9.10;85.00
4223;DHT22;2125;51.436;14.138;2022-10-31T05:15:15;9.00;84.90
4223;DHT22;2125;51.436;14.138;2022-10-31T05:17:42;9.10;85.00
4223;DHT22;2125;51.436;14.138;2022-10-31T05:20:09;9.00;85.00
4223;DHT22;2125;51.436;14.138;2022-10-31T05:22:36;9.00;84.90
4223;DHT22;2125;51.436;14.138;2022-10-31T05:25:03;9.10;84.90
4223;DHT22;2125;51.436;14.138;2022-10-31T05:27:31;9.10;84.70
4223;DHT22;2125;51.436;14.138;2022-10-31T05:29:58;9.10;84.70
4223;DHT22;2125;51.436;14.138;2022-10-31T05:32:25;9.10;84.60
4223;DHT22;2125;51.436;14.138;2022-10-31T05:34:51;9.20;84.60
4223;DHT22;2125;51.436;14.138;2022-10-31T05:37:18;9.20;84.50
4223;DHT22;2125;51.436;14.138;2022-10-31T05:39:44;9.20;84.70
4223;DHT22;2125;51.436;14.138;2022-10-31T05:42:11;9.10;84.70
4223;DHT22;2125;51.436;14.138;2022-10-31T05:44:39;9.10;84.70
4223;DHT22;2125;51.436;14.138;2022-10-31T05:47:06;9.00;84.70
4223;DHT22;2125;51.436;14.138;2022-10-31T05:49:32;9.00;84.90
4223;DHT22;2125;51.436;14.138;2022-10-31T05:51:59;8.90;85.00
4223;DHT22;2125;51.436;14.138;2022-10-31T05:54:32;8.90;85.00
4223;DHT22;2125;51.436;14.138;2022-10-31T05:56:58;8.90;84.90
4223;DHT22;2125;51.436;14.138;2022-10-31T05:59:25;9.00;84.90
4223;DHT22;2125;51.436;14.138;2022-10-31T06:01:53;9.00;85.00
4223;DHT22;2125;51.436;14.138;2022-10-31T06:04:20;9.00;85.00
4223;DHT22;2125;51.436;14.138;2022-10-31T06:06:50;8.90;84.90
4223;DHT22;2125;51.436;14.138;2022-10-31T06:09:16;8.90;84.90
4223;DHT22;2125;51.436;14.138;2022-10-31T06:11:43;9.00;84.70
4223;DHT22;2125;51.436;14.138;2022-10-31T06:14:10;9.00;84.70
4223;DHT22;2125;51.436;14.138;2022-10-31T06:16:37;9.00;84.70
4223;DHT22;2125;51.436;14.138;2022-10-31T06:19:13;9.10;84.70
4223;DHT22;2125;51.436;14.138;2022-10-31T06:21:42;9.00;85.00
4223;DHT22;2125;51.436;14.138;2022-10-31T06:24:09;9.00;84.90
4223;DHT22;2125;51.436;14.138;2022-10-31T06:26:36;9.00;84.90
4223;DHT22;2125;51.436;14.138;2022-10-31T06:29:07;9.10;84.90
4223;DHT22;2125;51.436;14.138;2022-10-31T06:31:37;9.10;84.70
4223;DHT22;2125;51.436;14.138;2022-10-31T06:34:06;9.20;84.60
4223;DHT22;2125;51.436;14.138;2022-10-31T06:36:34;9.30;84.60
4223;DHT22;2125;51.436;14.138;2022-10-31T06:39:02;9.40;84.80
4223;DHT22;2125;51.436;14.138;2022-10-31T06:41:29;9.40;85.00
4223;DHT22;2125;51.436;14.138;2022-10-31T06:43:55;9.40;85.00
4223;DHT22;2125;51.436;14.138;2022-10-31T06:46:28;9.30;85.10
4223;DHT22;2125;51.436;14.138;2022-10-31T06:49:01;9.40;85.00
4223;DHT22;2125;51.436;14.138;2022-10-31T06:51:29;9.40;85.10
4223;DHT22;2125;51.436;14.138;2022-10-31T06:53:58;9.40;85.10
4223;DHT22;2125;51.436;14.138;2022-10-31T06:56:34;9.50;85.00
4223;DHT22;2125;51.436;14.138;2022-10-31T06:59:19;9.50;84.90
4223;DHT22;2125;51.436;14.138;2022-10-31T07:01:47;9.60;84.70
4223;DHT22;2125;51.436;14.138;2022-10-31T07:04:14;9.80;84.60
4223;DHT22;2125;51.436;14.138;2022-10-31T07:06:40;9.90;84.60
4223;DHT22;2125;51.436;14.138;2022-10-31T07:09:08;9.90;84.60
4223;DHT22;2125;51.436;14.138;2022-10-31T07:11:35;10.00;84.60
4223;DHT22;2125;51.436;14.138;2022-10-31T07:14:02;10.10;84.60
4223;DHT22;2125;51.436;14.138;2022-10-31T07:16:28;10.10;84.70
4223;DHT22;2125;51.436;14.138;2022-10-31T07:18:55;10.20;84.70
4223;DHT22;2125;51.436;14.138;2022-10-31T07:21:21;10.40;84.70
4223;DHT22;2125;51.436;14.138;2022-10-31T07:23:48;10.50;84.70
4223;DHT22;2125;51.436;14.138;2022-10-31T07:26:16;10.60;84.80
4223;DHT22;2125;51.436;14.138;2022-10-31T07:28:43;10.70;84.70
4223;DHT22;2125;51.436;14.138;2022-10-31T07:31:10;10.80;84.50
4223;DHT22;2125;51.436;14.138;2022-10-31T07:33:36;10.90;84.30
4223;DHT22;2125;51.436;14.138;2022-10-31T07:36:03;11.00;84.30
4223;DHT22;2125;51.436;14.138;2022-10-31T07:38:30;11.10;84.10
4223;DHT22;2125;51.436;14.138;2022-10-31T07:40:56;11.30;83.90
4223;DHT22;2125;51.436;14.138;2022-10-31T07:43:24;11.40;83.90
4223;DHT22;2125;51.436;14.138;2022-10-31T07:45:52;11.50;83.90
4223;DHT22;2125;51.436;14.138;2022-10-31T07:48:19;11.60;83.90
4223;DHT22;2125;51.436;14.138;2022-10-31T07:50:46;11.70;83.90
4223;DHT22;2125;51.436;14.138;2022-10-31T07:53:14;11.80;83.70
4223;DHT22;2125;51.436;14.138;2022-10-31T07:55:41;11.90;83.90
4223;DHT22;2125;51.436;14.138;2022-10-31T07:58:10;12.00;83.90
4223;DHT22;2125;51.436;14.138;2022-10-31T08:00:40;12.10;83.80
4223;DHT22;2125;51.436;14.138;2022-10-31T08:03:08;12.30;83.70
4223;DHT22;2125;51.436;14.138;2022-10-31T08:05:35;12.40;83.90
4223;DHT22;2125;51.436;14.138;2022-10-31T08:08:02;12.50;84.10
4223;DHT22;2125;51.436;14.138;2022-10-31T08:10:29;12.60;84.40
4223;DHT22;2125;51.436;14.138;2022-10-31T08:12:57;12.70;84.50
4223;DHT22;2125;51.436;14.138;2022-10-31T08:15:24;12.90;84.70
4223;DHT22;2125;51.436;14.138;2022-10-31T08:17:52;13.00;84.70
4223;DHT22;2125;51.436;14.138;2022-10-31T08:20:19;13.00;84.80
4223;DHT22;2125;51.436;14.138;2022-10-31T08:22:53;13.10;84.80
4223;DHT22;2125;51.436;14.138;2022-10-31T08:25:20;13.20;85.00
4223;DHT22;2125;51.436;14.138;2022-10-31T08:27:49;13.30;85.00
4223;DHT22;2125;51.436;14.138;2022-10-31T08:30:16;13.50;85.00
4223;DHT22;2125;51.436;14.138;2022-10-31T08:32:42;13.60;85.10
4223;DHT22;2125;51.436;14.138;2022-10-31T08:35:10;13.70;85.00
4223;DHT22;2125;51.436;14.138;2022-10-31T08:37:37;13.80;85.10
4223;DHT22;2125;51.436;14.138;2022-10-31T08:40:05;13.90;85.00
4223;DHT22;2125;51.436;14.138;2022-10-31T08:42:31;14.00;84.90
4223;DHT22;2125;51.436;14.138;2022-10-31T08:44:58;14.10;85.00
4223;DHT22;2125;51.436;14.138;2022-10-31T08:47:25;14.20;84.80
4223;DHT22;2125;51.436;14.138;2022-10-31T08:49:53;14.30;84.80
4223;DHT22;2125;51.436;14.138;2022-10-31T08:52:23;14.40;84.80
4223;DHT22;2125;51.436;14.138;2022-10-31T08:54:51;14.50;84.60
4223;DHT22;2125;51.436;14.138;2022-10-31T08:57:18;14.60;84.60
4223;DHT22;2125;51.436;14.138;2022-10-31T08:59:44;14.60;84.60
4223;DHT22;2125;51.436;14.138;2022-10-31T09:02:11;14.70;84.60
4223;DHT22;2125;51.436;14.138;2022-10-31T09:04:37;14.80;84.70
4223;DHT22;2125;51.436;14.138;2022-10-31T09:07:04;14.90;84.60
4223;DHT22;2125;51.436;14.138;2022-10-31T09:09:32;15.00;84.60
4223;DHT22;2125;51.436;14.138;2022-10-31T09:11:59;15.10;84.50
4223;DHT22;2125;51.436;14.138;2022-10-31T09:14:28;15.20;84.40
4223;DHT22;2125;51.436;14.138;2022-10-31T09:16:54;15.40;84.50
4223;DHT22;2125;51.436;14.138;2022-10-31T09:19:21;15.50;84.40
4223;DHT22;2125;51.436;14.138;2022-10-31T09:21:51;15.60;84.60
4223;DHT22;2125;51.436;14.138;2022-10-31T09:24:17;15.60;84.40
4223;DHT22;2125;51.436;14.138;2022-10-31T09:26:45;15.70;83.70
4223;DHT22;2125;51.436;14.138;2022-10-31T09:29:12;15.80;83.90
4223;DHT22;2125;51.436;14.138;2022-10-31T09:31:39;15.80;83.90
4223;DHT22;2125;51.436;14.138;2022-10-31T09:34:05;15.90;83.70
4223;DHT22;2125;51.436;14.138;2022-10-31T09:36:32;15.90;83.80
4223;DHT22;2125;51.436;14.138;2022-10-31T09:38:59;16.00;84.10
4223;DHT22;2125;51.436;14.138;2022-10-31T09:41:31;16.00;83.60
4223;DHT22;2125;51.436;14.138;2022-10-31T09:44:07;16.00;83.70
4223;DHT22;2125;51.436;14.138;2022-10-31T09:46:44;16.00;83.50
4223;DHT22;2125;51.436;14.138;2022-10-31T09:49:48;16.00;83.70
4223;DHT22;2125;51.436;14.138;2022-10-31T09:52:20;16.10;83.40
4223;DHT22;2125;51.436;14.138;2022-10-31T09:54:52;16.20;83.40
4223;DHT22;2125;51.436;14.138;2022-10-31T09:57:25;16.20;83.30
4223;DHT22;2125;51.436;14.138;2022-10-31T09:59:55;16.30;83.30
4223;DHT22;2125;51.436;14.138;2022-10-31T10:02:25;16.40;83.70
4223;DHT22;2125;51.436;14.138;2022-10-31T10:04:58;16.40;83.60
4223;DHT22;2125;51.436;14.138;2022-10-31T10:07:35;16.40;83.40
4223;DHT22;2125;51.436;14.138;2022-10-31T10:10:14;16.40;83.00
4223;DHT22;2125;51.436;14.138;2022-10-31T10:15:51;16.50;83.10
4223;DHT22;2125;51.436;14.138;2022-10-31T10:18:32;16.60;82.70
4223;DHT22;2125;51.436;14.138;2022-10-31T10:21:06;16.60;83.50
4223;DHT22;2125;51.436;14.138;2022-10-31T10:23:45;16.70;83.10
4223;DHT22;2125;51.436;14.138;2022-10-31T10:26:17;16.70;83.10
4223;DHT22;2125;51.436;14.138;2022-10-31T10:28:48;16.70;82.90
4223;DHT22;2125;51.436;14.138;2022-10-31T10:31:20;16.80;82.60
4223;DHT22;2125;51.436;14.138;2022-10-31T10:33:58;16.80;83.10
4223;DHT22;2125;51.436;14.138;2022-10-31T10:36:28;16.80;82.80
4223;DHT22;2125;51.436;14.138;2022-10-31T10:38:59;16.90;83.00
4223;DHT22;2125;51.436;14.138;2022-10-31T10:41:30;16.90;82.50
4223;DHT22;2125;51.436;14.138;2022-10-31T10:43:57;16.90;82.60
4223;DHT22;2125;51.436;14.138;2022-10-31T10:46:30;16.90;82.50
4223;DHT22;2125;51.436;14.138;2022-10-31T10:49:18;17.00;82.60
4223;DHT22;2125;51.436;14.138;2022-10-31T10:51:47;17.10;82.70
4223;DHT22;2125;51.436;14.138;2022-10-31T10:54:39;17.40;81.60
4223;DHT22;2125;51.436;14.138;2022-10-31T10:57:21;18.00;80.70
4223;DHT22;2125;51.436;14.138;2022-10-31T10:59:49;18.50;79.30
4223;DHT22;2125;51.436;14.138;2022-10-31T11:02:18;18.50;78.60
4223;DHT22;2125;51.436;14.138;2022-10-31T11:04:48;18.60;79.20
4223;DHT22;2125;51.436;14.138;2022-10-31T11:07:16;18.50;78.70
4223;DHT22;2125;51.436;14.138;2022-10-31T11:09:42;18.20;79.40
4223;DHT22;2125;51.436;14.138;2022-10-31T11:12:11;18.00;80.10
4223;DHT22;2125;51.436;14.138;2022-10-31T11:14:48;17.80;81.10
4223;DHT22;2125;51.436;14.138;2022-10-31T11:17:29;17.70;80.80
4223;DHT22;2125;51.436;14.138;2022-10-31T11:20:05;17.60;81.20
4223;DHT22;2125;51.436;14.138;2022-10-31T11:22:32;17.50;81.60
4223;DHT22;2125;51.436;14.138;2022-10-31T11:24:59;17.50;80.90
4223;DHT22;2125;51.436;14.138;2022-10-31T11:27:26;17.50;81.10
4223;DHT22;2125;51.436;14.138;2022-10-31T11:30:04;17.50;81.80
4223;DHT22;2125;51.436;14.138;2022-10-31T11:32:32;17.50;81.60
4223;DHT22;2125;51.436;14.138;2022-10-31T11:35:01;17.50;81.00
4223;DHT22;2125;51.436;14.138;2022-10-31T11:37:31;17.50;80.60
4223;DHT22;2125;51.436;14.138;2022-10-31T11:40:03;17.50;81.40
4223;DHT22;2125;51.436;14.138;2022-10-31T11:42:35;17.60;81.30
4223;DHT22;2125;51.436;14.138;2022-10-31T11:45:07;17.60;80.80
4223;DHT22;2125;51.436;14.138;2022-10-31T11:47:45;17.60;80.60
4223;DHT22;2125;51.436;14.138;2022-10-31T11:50:19;17.70;81.70
4223;DHT22;2125;51.436;14.138;2022-10-31T11:52:47;17.70;81.30
4223;DHT22;2125;51.436;14.138;2022-10-31T11:55:17;17.80;80.60
4223;DHT22;2125;51.436;14.138;2022-10-31T11:57:46;17.80;80.80
4223;DHT22;2125;51.436;14.138;2022-10-31T12:00:22;17.90;80.40
4223;DHT22;2125;51.436;14.138;2022-10-31T12:02:51;17.90;80.30
4223;DHT22;2125;51.436;14.138;2022-10-31T12:05:19;17.90;80.30
4223;DHT22;2125;51.436;14.138;2022-10-31T12:07:48;18.00;81.40
4223;DHT22;2125;51.436;14.138;2022-10-31T12:10:15;18.00;80.40
4223;DHT22;2125;51.436;14.138;2022-10-31T12:12:59;18.00;79.80
4223;DHT22;2125;51.436;14.138;2022-10-31T12:15:31;18.00;79.70
4223;DHT22;2125;51.436;14.138;2022-10-31T12:18:27;18.10;79.60
4223;DHT22;2125;51.436;14.138;2022-10-31T12:23:55;18.40;79.40
4223;DHT22;2125;51.436;14.138;2022-10-31T12:26:31;18.50;78.90
4223;DHT22;2125;51.436;14.138;2022-10-31T12:29:10;18.50;79.40
4223;DHT22;2125;51.436;14.138;2022-10-31T12:31:50;18.40;79.60
4223;DHT22;2125;51.436;14.138;2022-10-31T12:37:26;18.30;79.20
4223;DHT22;2125;51.436;14.138;2022-10-31T12:40:06;18.30;79.20
4223;DHT22;2125;51.436;14.138;2022-10-31T12:42:45;18.50;79.10
4223;DHT22;2125;51.436;14.138;2022-10-31T12:45:31;18.70;79.50
4223;DHT22;2125;51.436;14.138;2022-10-31T12:48:18;18.70;78.40
4223;DHT22;2125;51.436;14.138;2022-10-31T12:50:58;18.70;79.40
4223;DHT22;2125;51.436;14.138;2022-10-31T12:53:38;18.60;78.50
4223;DHT22;2125;51.436;14.138;2022-10-31T12:56:21;18.60;78.50
4223;DHT22;2125;51.436;14.138;2022-10-31T12:58:59;18.60;78.80
4223;DHT22;2125;51.436;14.138;2022-10-31T13:01:30;18.60;78.80
4223;DHT22;2125;51.436;14.138;2022-10-31T13:04:03;18.50;80.00
4223;DHT22;2125;51.436;14.138;2022-10-31T13:06:36;18.50;79.50
4223;DHT22;2125;51.436;14.138;2022-10-31T13:09:07;18.50;80.50
4223;DHT22;2125;51.436;14.138;2022-10-31T13:11:39;18.50;80.60
4223;DHT22;2125;51.436;14.138;2022-10-31T13:14:09;18.40;79.90
4223;DHT22;2125;51.436;14.138;2022-10-31T13:16:40;18.50;79.50
4223;DHT22;2125;51.436;14.138;2022-10-31T13:19:13;18.50;79.30
4223;DHT22;2125;51.436;14.138;2022-10-31T13:21:52;18.50;79.90
4223;DHT22;2125;51.436;14.138;2022-10-31T13:24:23;18.60;79.90
4223;DHT22;2125;51.436;14.138;2022-10-31T13:26:54;18.70;79.80
4223;DHT22;2125;51.436;14.138;2022-10-31T13:29:26;18.60;79.60
4223;DHT22;2125;51.436;14.138;2022-10-31T13:31:54;18.60;80.10
4223;DHT22;2125;51.436;14.138;2022-10-31T13:34:27;18.60;80.10
4223;DHT22;2125;51.436;14.138;2022-10-31T13:37:03;18.60;80.00
4223;DHT22;2125;51.436;14.138;2022-10-31T13:39:45;18.60;79.10
4223;DHT22;2125;51.436;14.138;2022-10-31T13:42:17;18.60;79.40
4223;DHT22;2125;51.436;14.138;2022-10-31T13:44:46;18.60;81.10
4223;DHT22;2125;51.436;14.138;2022-10-31T13:47:25;18.50;81.00
4223;DHT22;2125;51.436;14.138;2022-10-31T13:50:03;18.40;80.30
4223;DHT22;2125;51.436;14.138;2022-10-31T13:52:31;18.30;80.60
4223;DHT22;2125;51.436;14.138;2022-10-31T13:54:58;18.30;80.60
4223;DHT22;2125;51.436;14.138;2022-10-31T13:57:31;18.20;80.70
4223;DHT22;2125;51.436;14.138;2022-10-31T14:00:00;18.20;80.40
4223;DHT22;2125;51.436;14.138;2022-10-31T14:02:30;18.10;80.80
4223;DHT22;2125;51.436;14.138;2022-10-31T14:04:59;18.10;80.40
4223;DHT22;2125;51.436;14.138;2022-10-31T14:07:28;18.10;80.00
4223;DHT22;2125;51.436;14.138;2022-10-31T14:10:00;18.10;80.20
4223;DHT22;2125;51.436;14.138;2022-10-31T14:12:31;18.10;81.20
4223;DHT22;2125;51.436;14.138;2022-10-31T14:15:04;18.00;81.40
4223;DHT22;2125;51.436;14.138;2022-10-31T14:17:38;17.90;81.50
4223;DHT22;2125;51.436;14.138;2022-10-31T14:20:38;17.80;82.00
4223;DHT22;2125;51.436;14.138;2022-10-31T14:23:25;17.70;82.40
4223;DHT22;2125;51.436;14.138;2022-10-31T14:26:17;17.70;82.60
4223;DHT22;2125;51.436;14.138;2022-10-31T14:28:45;17.50;82.90
4223;DHT22;2125;51.436;14.138;2022-10-31T14:31:31;17.40;83.20
4223;DHT22;2125;51.436;14.138;2022-10-31T14:34:01;17.30;83.20
4223;DHT22;2125;51.436;14.138;2022-10-31T14:36:36;17.30;83.10
4223;DHT22;2125;51.436;14.138;2022-10-31T14:39:13;17.20;83.10
4223;DHT22;2125;51.436;14.138;2022-10-31T14:41:53;17.20;83.30
4223;DHT22;2125;51.436;14.138;2022-10-31T14:47:28;17.10;83.20
4223;DHT22;2125;51.436;14.138;2022-10-31T14:50:18;17.00;83.20
4223;DHT22;2125;51.436;14.138;2022-10-31T14:52:52;17.10;83.20
4223;DHT22;2125;51.436;14.138;2022-10-31T14:55:20;17.20;82.90
4223;DHT22;2125;51.436;14.138;2022-10-31T14:57:52;17.20;83.10
4223;DHT22;2125;51.436;14.138;2022-10-31T15:00:22;17.20;83.20
4223;DHT22;2125;51.436;14.138;2022-10-31T15:02:56;17.20;83.50
4223;DHT22;2125;51.436;14.138;2022-10-31T15:05:26;17.10;83.50
4223;DHT22;2125;51.436;14.138;2022-10-31T15:07:54;17.00;83.70
4223;DHT22;2125;51.436;14.138;2022-10-31T15:10:23;16.90;83.90
4223;DHT22;2125;51.436;14.138;2022-10-31T15:12:52;16.90;83.90
4223;DHT22;2125;51.436;14.138;2022-10-31T15:15:23;16.80;84.10
4223;DHT22;2125;51.436;14.138;2022-10-31T15:17:55;16.60;84.10
4223;DHT22;2125;51.436;14.138;2022-10-31T15:20:26;16.60;84.20
4223;DHT22;2125;51.436;14.138;2022-10-31T15:22:55;16.40;84.20
4223;DHT22;2125;51.436;14.138;2022-10-31T15:25:24;16.40;84.40
4223;DHT22;2125;51.436;14.138;2022-10-31T15:27:53;16.30;84.50
4223;DHT22;2125;51.436;14.138;2022-10-31T15:30:21;16.10;84.50
4223;DHT22;2125;51.436;14.138;2022-10-31T15:32:49;16.10;84.60
4223;DHT22;2125;51.436;14.138;2022-10-31T15:35:22;16.00;84.60
4223;DHT22;2125;51.436;14.138;2022-10-31T15:37:50;15.80;84.70
4223;DHT22;2125;51.436;14.138;2022-10-31T15:40:19;15.60;84.70
4223;DHT22;2125;51.436;14.138;2022-10-31T15:42:50;15.40;84.80
4223;DHT22;2125;51.436;14.138;2022-10-31T15:45:21;15.30;84.80
4223;DHT22;2125;51.436;14.138;2022-10-31T15:47:54;15.20;84.90
4223;DHT22;2125;51.436;14.138;2022-10-31T15:50:27;15.00;84.80
4223;DHT22;2125;51.436;14.138;2022-10-31T15:52:54;14.80;84.90
4223;DHT22;2125;51.436;14.138;2022-10-31T15:55:23;14.50;84.90
4223;DHT22;2125;51.436;14.138;2022-10-31T15:57:52;14.30;84.90
4223;DHT22;2125;51.436;14.138;2022-10-31T16:00:28;14.10;84.90
4223;DHT22;2125;51.436;14.138;2022-10-31T16:03:04;14.20;84.90
4223;DHT22;2125;51.436;14.138;2022-10-31T16:05:36;14.20;84.70
4223;DHT22;2125;51.436;14.138;2022-10-31T16:08:03;14.10;84.60
4223;DHT22;2125;51.436;14.138;2022-10-31T16:10:33;14.00;84.60
4223;DHT22;2125;51.436;14.138;2022-10-31T16:13:01;14.00;84.40
4223;DHT22;2125;51.436;14.138;2022-10-31T16:15:30;13.90;84.40
4223;DHT22;2125;51.436;14.138;2022-10-31T16:17:58;13.90;84.30
4223;DHT22;2125;51.436;14.138;2022-10-31T16:20:27;13.80;84.20
4223;DHT22;2125;51.436;14.138;2022-10-31T16:22:57;13.70;84.10
4223;DHT22;2125;51.436;14.138;2022-10-31T16:25:27;13.70;84.00
4223;DHT22;2125;51.436;14.138;2022-10-31T16:28:03;13.70;84.00
4223;DHT22;2125;51.436;14.138;2022-10-31T16:30:36;13.50;84.00